CYYHCYGT

Guest
Details From CYYH - TALOYOAK
To CYGT - Igloolik
Flight Number -
Tags generated
Created
Modified
Stats Distance 326 nm / 604 km
Max Altitude 35,000 ft / 10,668 m
Waypoints 4
Social Downloads 0
Likes 0
Share VATSIM

Download

Looking for another format? Having issues loading an existing format? Contact us
Advertisement - Login to hide

Notes

Basic altitude profile: - Ascent Rate: 300ft/min - Ascent Speed: 120kts - Cruise Altitude: 3000ft - Cruise Speed: 160kts - Descent Rate: 600ft/min - Descent Speed: 160kts Options: - Use NATs: no - Use PACOTS: no - Use low airways: yes - Use high airways: no

Route

CYYH YBB RR30 UX CYGT

ID Type Via Altitude Latitude Longitude Leg Dist Tot Dist Heading (true) Name
O CYYH APT - 0 ft / 0 m 69.54611˚ -93.57611˚ - 0 nm - TALOYOAK
YBB NDB - 35,000 ft / 10,668 m 68.53500˚ -89.78778˚ 101 nm 101 nm 125° / 128° KUGAARUK NDB
UX NDB RR30 (AWY-LO) 8,100 ft / 2,469 m 68.76722˚ -81.25639˚ 186 nm 288 nm 82° / 90° HALL BEACH NDB
O CYGT APT - 0 ft / 0 m 69.36482˚ -81.81709˚ 37 nm 326 nm 342° / 341° Igloolik

Altitude Profile

Advertisement - Login to hide

Weather


0- 5 10 15 20 25 30 35+ Temperature / ° C

Clouds and Precipitation
Forecast for 2018-06-21 18:00 UTC. Updated 6 hours ago

Ground ~20,000 ft ~40,000 ft Winds

CYYH

Details ICAO CYYH (YYH)
Name TALOYOAK
Region Canada
Timezone America/Cambridge_Bay (UTC-6.0)
Stats Elevation 92 ft / 28 m (AMSL)
Location 69.546111° -93.576113°
Runways 1
Magnetic Variation 12.397° W

METAR

CYYH 212122Z 34018G24KT 15SM -SHRA FEW015 SCT029 BKN038 05/M00 A2976 RMK CU1SC3SC2 SLP080

Decode

TAF

TAF CYYH 211738Z 2118/2206 34022G32KT P6SM BKN030 TEMPO 2118/2206 P6SM -SHRA BKN020 BECMG 2121/2123 33018KT RMK NXT FCST BY 220000Z

Decode

Departure Runways

ID Width Length Bearing (true) Bearing (mag) Surface Threshold Offset Overrun Length
15T 100 ft / 30 m 4,008 ft / 1,222 m 151.85° 164.25° Gravel 0 ft / 0 m 0 ft / 0 m
33T 100 ft / 30 m 4,008 ft / 1,222 m 331.87° 344.27° Gravel 0 ft / 0 m 0 ft / 0 m

CYGT

Details ICAO CYGT (YGT)
Name Igloolik
Region Canada
Timezone America/Iqaluit (UTC-4.0)
Stats Elevation 98 ft / 30 m (AMSL)
Location 69.364817° -81.817087°
Runways 1
Magnetic Variation 27.570° W

METAR

CYGT 212100Z 08009KT 10SM FEW004 SCT006 BKN010 03/02 A2941 RMK ST1ST2SC4 4.7/0.1/TR/LAST STFD OBS/NEXT 221000Z SLP965

Decode

TAF

TAF AMD TAF AMD CYGT 212033Z 2120/2121 09008KT 1/8SM -DZ FG OVC003 TEMPO 2120/2121 21/2SM BR OVC006 RMK NXT FCST WILL BE ISSUED AT 221145Z

Decode

Destination Runways

ID Width Length Bearing (true) Bearing (mag) Surface Threshold Offset Overrun Length
15 98 ft / 30 m 4,502 ft / 1,372 m 145.64° 173.21° Dirt 0 ft / 0 m 0 ft / 0 m
33 98 ft / 30 m 4,502 ft / 1,372 m 325.65° 353.22° Dirt 0 ft / 0 m 0 ft / 0 m

Popular Alternatives